Time;durP1;ratioP1;P1;durP2;ratioP2;P2;SDS_P1;SDS_P2;PMS_P1;PMS_P2;Temp;Humidity;BMP_temperature;BMP_pressure;BME280_temperature;BME280_humidity;BME280_pressure;Samples;Min_cycle;Max_cycle;Signal;HPM_P1;HPM_P2
2022/07/27 00:02:05;;;;;;;3.78;1.10;;;15.40;99.90;;;;;;5011212;28;20182;-66
2022/07/27 00:04:30;;;;;;;4.97;1.10;;;15.40;99.90;;;;;;5010853;28;20676;-66
2022/07/27 00:06:56;;;;;;;3.55;1.30;;;15.30;99.90;;;;;;5011548;28;20186;-57
2022/07/27 00:09:22;;;;;;;4.47;1.00;;;15.30;99.90;;;;;;5011385;28;20178;-56
2022/07/27 00:11:48;;;;;;;4.82;1.00;;;15.30;99.90;;;;;;5011971;28;20174;-57
2022/07/27 00:14:14;;;;;;;2.83;0.90;;;15.30;99.90;;;;;;5011850;28;20554;-56
2022/07/27 00:16:40;;;;;;;3.67;1.00;;;15.20;99.90;;;;;;5010819;28;20253;-56
2022/07/27 00:19:06;;;;;;;3.63;1.00;;;15.20;99.90;;;;;;5011673;28;20218;-56
2022/07/27 00:21:32;;;;;;;4.55;1.40;;;15.10;99.90;;;;;;5011395;28;20190;-56
2022/07/27 00:23:58;;;;;;;4.70;1.30;;;15.10;99.90;;;;;;5011699;28;20257;-56
2022/07/27 00:26:24;;;;;;;3.42;1.30;;;15.10;99.90;;;;;;5011872;28;20265;-57
2022/07/27 00:28:50;;;;;;;4.32;1.10;;;15.00;99.90;;;;;;5011670;28;20170;-57
2022/07/27 00:31:16;;;;;;;8.10;1.33;;;15.00;99.90;;;;;;5011633;28;20166;-56
2022/07/27 00:33:42;;;;;;;5.53;1.23;;;15.00;99.90;;;;;;5011617;28;20163;-57
2022/07/27 00:36:08;;;;;;;3.10;1.15;;;15.10;99.90;;;;;;5011332;28;20643;-56
2022/07/27 00:38:34;;;;;;;3.80;1.00;;;15.10;99.90;;;;;;5011700;28;20179;-56
2022/07/27 00:41:00;;;;;;;5.30;1.15;;;15.10;99.90;;;;;;5011291;28;20177;-56
2022/07/27 00:43:26;;;;;;;5.97;1.30;;;15.00;99.90;;;;;;5011561;28;20185;-57
2022/07/27 00:45:52;;;;;;;4.25;1.00;;;15.10;99.90;;;;;;5011362;28;20633;-55
2022/07/27 00:48:18;;;;;;;3.60;0.90;;;15.00;99.90;;;;;;5011117;28;20167;-57
2022/07/27 00:50:45;;;;;;;9.52;1.52;;;15.00;99.90;;;;;;5011173;28;20224;-56
2022/07/27 00:53:12;;;;;;;3.75;0.95;;;15.00;99.90;;;;;;5011328;28;20187;-56
2022/07/27 00:55:39;;;;;;;6.45;1.00;;;15.00;99.90;;;;;;5011306;28;20218;-57
2022/07/27 00:58:07;;;;;;;4.90;0.90;;;14.90;99.90;;;;;;5011344;28;20174;-56
2022/07/27 01:00:36;;;;;;;2.45;1.00;;;14.90;99.90;;;;;;5011277;28;20186;-56
2022/07/27 01:03:03;;;;;;;3.22;0.77;;;14.80;99.90;;;;;;5011516;28;20170;-56
2022/07/27 01:05:29;;;;;;;8.65;1.15;;;14.80;99.90;;;;;;5011017;28;20166;-56
2022/07/27 01:07:55;;;;;;;3.83;1.10;;;14.90;99.90;;;;;;5010737;28;20182;-56
2022/07/27 01:10:21;;;;;;;2.63;0.75;;;14.90;99.90;;;;;;5011271;28;20630;-57
2022/07/27 01:12:47;;;;;;;4.57;1.20;;;14.80;99.90;;;;;;5011184;28;20217;-57
2022/07/27 01:15:13;;;;;;;6.40;1.20;;;14.80;99.90;;;;;;5011008;28;20665;-56
2022/07/27 01:17:39;;;;;;;8.70;1.48;;;14.80;99.90;;;;;;5011044;28;20171;-56
2022/07/27 01:20:05;;;;;;;2.95;1.00;;;14.70;99.90;;;;;;5010736;28;20226;-56
2022/07/27 01:22:31;;;;;;;6.03;1.00;;;14.70;99.90;;;;;;5011256;28;20170;-56
2022/07/27 01:24:57;;;;;;;5.18;1.15;;;14.70;99.90;;;;;;5011061;28;20616;-56
2022/07/27 01:27:22;;;;;;;6.38;0.98;;;14.70;99.90;;;;;;5011150;28;20209;-56
2022/07/27 01:29:48;;;;;;;5.43;1.27;;;14.60;99.90;;;;;;5014194;28;20191;-57
2022/07/27 01:32:15;;;;;;;3.17;1.05;;;14.60;99.90;;;;;;5014948;28;20646;-57
2022/07/27 01:34:40;;;;;;;5.63;0.85;;;14.60;99.90;;;;;;5014848;28;20211;-57
2022/07/27 01:37:06;;;;;;;1.83;0.77;;;14.60;99.90;;;;;;5014844;28;20220;-57
2022/07/27 01:39:33;;;;;;;3.85;0.73;;;14.60;99.90;;;;;;5014533;28;20183;-56
2022/07/27 01:42:00;;;;;;;6.15;1.15;;;14.50;99.90;;;;;;5014680;28;20167;-57
2022/07/27 01:44:26;;;;;;;6.57;0.98;;;14.50;99.90;;;;;;5014691;28;20213;-57
2022/07/27 01:46:52;;;;;;;4.57;1.02;;;14.50;99.90;;;;;;5014390;28;20757;-57
2022/07/27 01:49:18;;;;;;;7.00;0.90;;;14.40;99.90;;;;;;5014372;28;20198;-56
2022/07/27 01:51:44;;;;;;;4.13;1.02;;;14.40;99.90;;;;;;4997136;28;20213;-56
2022/07/27 01:54:10;;;;;;;5.00;0.98;;;14.40;99.90;;;;;;5014307;28;20293;-58
2022/07/27 01:56:35;;;;;;;3.05;0.80;;;14.40;99.90;;;;;;5014505;28;20171;-56
2022/07/27 01:59:01;;;;;;;8.45;1.17;;;14.40;99.90;;;;;;5014121;28;20173;-57
2022/07/27 02:01:27;;;;;;;5.05;1.17;;;14.40;99.90;;;;;;5014357;28;20185;-56
2022/07/27 02:03:53;;;;;;;5.03;1.30;;;14.50;99.90;;;;;;5014097;28;20171;-56
2022/07/27 02:06:19;;;;;;;3.95;1.13;;;14.50;99.90;;;;;;5014534;28;20186;-57
2022/07/27 02:08:45;;;;;;;9.77;0.90;;;14.50;99.90;;;;;;5002388;28;20179;-56
2022/07/27 02:13:54;;;;;;;5.78;1.10;;;14.40;99.90;;;;;;5006645;28;20590;-55
2022/07/27 02:16:20;;;;;;;7.00;1.20;;;14.40;99.90;;;;;;5008616;28;20207;-56
2022/07/27 02:18:47;;;;;;;5.22;0.95;;;14.40;99.90;;;;;;5013839;28;20643;-55
2022/07/27 02:21:13;;;;;;;5.28;1.00;;;14.40;99.90;;;;;;5013871;28;20248;-56
2022/07/27 02:23:39;;;;;;;4.72;1.08;;;14.40;99.90;;;;;;5013951;28;20649;-56
2022/07/27 02:26:06;;;;;;;3.70;0.98;;;14.30;99.90;;;;;;5013922;28;20163;-55
2022/07/27 02:28:33;;;;;;;4.82;1.10;;;14.30;99.90;;;;;;5014121;28;20181;-56
2022/07/27 02:30:59;;;;;;;3.38;1.15;;;14.30;99.90;;;;;;5013515;28;20281;-55
2022/07/27 02:33:25;;;;;;;3.75;0.93;;;14.20;99.90;;;;;;5013902;28;20200;-56
2022/07/27 02:35:51;;;;;;;3.40;1.40;;;14.10;99.90;;;;;;5013704;28;20284;-55
2022/07/27 02:38:17;;;;;;;4.32;1.17;;;14.10;99.90;;;;;;5013760;28;20645;-56
2022/07/27 02:40:43;;;;;;;3.97;1.30;;;14.00;99.90;;;;;;5012669;28;20540;-55
2022/07/27 02:43:09;;;;;;;3.80;1.17;;;13.90;99.90;;;;;;5013583;28;20171;-56
2022/07/27 02:45:34;;;;;;;6.60;1.13;;;14.00;99.90;;;;;;5013430;28;20170;-56
2022/07/27 02:48:01;;;;;;;5.72;1.30;;;13.90;99.90;;;;;;5013538;28;20607;-56
2022/07/27 02:50:26;;;;;;;3.95;1.20;;;13.80;99.90;;;;;;5013606;28;20171;-56
2022/07/27 02:52:52;;;;;;;6.22;1.38;;;13.70;99.90;;;;;;5013142;28;20653;-57
2022/07/27 02:55:18;;;;;;;6.65;1.25;;;13.70;99.90;;;;;;5013301;28;20708;-56
2022/07/27 02:57:44;;;;;;;4.63;1.20;;;13.70;99.90;;;;;;5013430;28;20526;-56
2022/07/27 03:00:13;;;;;;;3.87;1.17;;;13.70;99.90;;;;;;5012930;28;20175;-56
2022/07/27 03:02:39;;;;;;;4.90;1.33;;;13.70;99.90;;;;;;5013398;28;20166;-56
2022/07/27 03:05:06;;;;;;;8.90;1.67;;;13.70;99.90;;;;;;5013147;28;20198;-56
2022/07/27 03:07:32;;;;;;;3.50;0.90;;;13.60;99.90;;;;;;5013025;28;20178;-56
2022/07/27 03:09:57;;;;;;;6.72;1.23;;;13.60;99.90;;;;;;5013178;28;20185;-57
2022/07/27 03:12:23;;;;;;;1.40;0.80;;;13.60;99.90;;;;;;5013032;28;20246;-57
2022/07/27 03:14:49;;;;;;;4.57;1.23;;;13.60;99.90;;;;;;5012749;28;20272;-57
2022/07/27 03:17:15;;;;;;;4.28;1.23;;;13.50;99.90;;;;;;5012961;28;20182;-57
2022/07/27 03:19:41;;;;;;;7.63;1.20;;;13.50;99.90;;;;;;5012786;28;20296;-58
2022/07/27 03:22:07;;;;;;;6.13;1.40;;;13.50;99.90;;;;;;5012345;28;20177;-56
2022/07/27 03:24:32;;;;;;;4.50;1.13;;;13.40;99.90;;;;;;5012854;28;20171;-57
2022/07/27 03:26:58;;;;;;;10.70;1.25;;;13.40;99.90;;;;;;5012853;28;20668;-56
2022/07/27 03:29:24;;;;;;;4.10;1.42;;;13.40;99.90;;;;;;5012620;28;20182;-56
2022/07/27 03:31:50;;;;;;;7.78;1.50;;;13.40;99.90;;;;;;5012657;28;20715;-56
2022/07/27 03:34:16;;;;;;;9.85;1.80;;;13.30;99.90;;;;;;5012626;28;20340;-56
2022/07/27 03:36:42;;;;;;;3.40;1.30;;;13.40;99.90;;;;;;5012463;28;20189;-56
2022/07/27 03:39:08;;;;;;;2.80;1.13;;;13.40;99.90;;;;;;5012482;28;20205;-56
2022/07/27 03:41:34;;;;;;;5.20;1.15;;;13.30;99.90;;;;;;5012557;28;20186;-56
2022/07/27 03:44:00;;;;;;;3.60;1.27;;;13.30;99.90;;;;;;5012408;28;20179;-56
2022/07/27 03:46:26;;;;;;;5.80;1.45;;;13.20;99.90;;;;;;5011566;28;20197;-56
2022/07/27 03:48:51;;;;;;;8.65;1.52;;;13.20;99.90;;;;;;5012379;28;20628;-56
2022/07/27 03:51:17;;;;;;;3.87;1.13;;;13.20;99.90;;;;;;5012016;28;20175;-56
2022/07/27 03:53:43;;;;;;;5.72;0.98;;;13.20;99.90;;;;;;5012249;28;20633;-55
2022/07/27 03:56:09;;;;;;;3.95;1.20;;;13.10;99.90;;;;;;5012200;28;20217;-56
2022/07/27 03:58:35;;;;;;;3.55;1.02;;;13.10;99.90;;;;;;5012368;28;20174;-56
2022/07/27 04:01:00;;;;;;;4.13;1.00;;;13.00;99.90;;;;;;5012212;28;20605;-56
2022/07/27 04:03:26;;;;;;;6.90;1.37;;;12.90;99.90;;;;;;5012125;28;20695;-56
2022/07/27 04:05:52;;;;;;;3.70;1.17;;;12.90;99.90;;;;;;5012031;28;20181;-58
2022/07/27 04:08:20;;;;;;;5.85;1.27;;;12.90;99.90;;;;;;5012080;28;20261;-56
2022/07/27 04:10:46;;;;;;;4.20;1.30;;;12.90;99.90;;;;;;5012138;28;20170;-56
2022/07/27 04:13:13;;;;;;;4.43;1.23;;;12.80;99.90;;;;;;5011879;28;20269;-56
2022/07/27 04:15:38;;;;;;;4.90;1.77;;;12.80;99.90;;;;;;5011616;28;20210;-57
2022/07/27 04:18:04;;;;;;;6.43;1.27;;;12.80;99.90;;;;;;5011912;28;20217;-57
2022/07/27 04:20:30;;;;;;;7.23;1.60;;;12.70;99.90;;;;;;5011755;28;20552;-57
2022/07/27 04:22:56;;;;;;;5.57;1.60;;;12.80;99.90;;;;;;5011885;28;20178;-57
2022/07/27 04:25:22;;;;;;;6.40;1.87;;;12.80;99.90;;;;;;5009165;28;20182;-57
2022/07/27 04:27:48;;;;;;;6.50;1.43;;;12.80;99.90;;;;;;5000416;28;20566;-56
2022/07/27 04:30:14;;;;;;;6.55;1.35;;;12.90;99.90;;;;;;5011256;28;20170;-56
2022/07/27 04:32:40;;;;;;;4.50;1.30;;;12.80;99.90;;;;;;5011658;28;20196;-57
2022/07/27 04:35:06;;;;;;;11.55;1.60;;;12.80;99.90;;;;;;5011681;28;20688;-56
2022/07/27 04:37:33;;;;;;;9.13;1.40;;;12.80;99.90;;;;;;5011649;28;20266;-56
2022/07/27 04:40:00;;;;;;;9.07;1.90;;;12.90;99.90;;;;;;5010387;28;20178;-57
2022/07/27 04:42:26;;;;;;;6.03;1.40;;;12.90;99.90;;;;;;5011312;28;20174;-56
2022/07/27 04:44:51;;;;;;;7.33;1.47;;;12.90;99.90;;;;;;5011352;28;20294;-56
2022/07/27 04:47:17;;;;;;;11.30;1.63;;;12.90;99.90;;;;;;5011502;28;20224;-56
2022/07/27 04:49:43;;;;;;;4.50;1.50;;;12.90;99.90;;;;;;5011428;28;20182;-57
2022/07/27 04:52:09;;;;;;;4.73;1.40;;;12.80;99.90;;;;;;5011556;28;20200;-57
2022/07/27 04:54:35;;;;;;;8.37;1.53;;;12.90;99.90;;;;;;5011503;28;20264;-64
2022/07/27 04:57:01;;;;;;;5.60;1.92;;;13.10;99.90;;;;;;5010274;28;20174;-57
2022/07/27 04:59:27;;;;;;;4.50;1.23;;;12.90;99.90;;;;;;5011284;28;20189;-58
2022/07/27 05:01:53;;;;;;;13.73;1.30;;;12.90;99.90;;;;;;5011938;28;20171;-58
2022/07/27 05:04:19;;;;;;;7.93;1.70;;;12.90;99.90;;;;;;5017572;28;20517;-58
2022/07/27 05:06:45;;;;;;;4.20;1.30;;;13.00;99.90;;;;;;5017920;28;20205;-58
2022/07/27 05:09:11;;;;;;;6.40;1.63;;;13.00;99.90;;;;;;5018266;28;20174;-58
2022/07/27 05:11:37;;;;;;;7.05;1.45;;;13.00;99.90;;;;;;5017875;28;20193;-58
2022/07/27 05:14:03;;;;;;;5.50;1.48;;;13.00;99.90;;;;;;5017881;28;20162;-58
2022/07/27 05:16:29;;;;;;;4.53;1.52;;;13.00;99.90;;;;;;5017672;28;20705;-58
2022/07/27 05:18:55;;;;;;;5.00;1.63;;;13.00;99.90;;;;;;5017453;28;20692;-57
2022/07/27 05:21:21;;;;;;;8.20;1.80;;;13.00;99.90;;;;;;5017861;28;20178;-57
2022/07/27 05:23:47;;;;;;;9.70;1.92;;;13.10;99.90;;;;;;5017818;28;20182;-57
2022/07/27 05:26:13;;;;;;;6.57;1.65;;;13.10;99.90;;;;;;5000067;28;20217;-57
2022/07/27 05:28:39;;;;;;;7.10;1.70;;;13.10;99.90;;;;;;5017581;28;20167;-56
2022/07/27 05:31:05;;;;;;;5.77;1.60;;;13.10;99.90;;;;;;5017650;28;20169;-57
2022/07/27 05:33:30;;;;;;;10.43;2.05;;;13.20;99.90;;;;;;5017574;28;20180;-57
2022/07/27 05:35:56;;;;;;;4.43;1.60;;;13.40;99.90;;;;;;5017478;28;20214;-56
2022/07/27 05:38:22;;;;;;;6.85;1.75;;;13.30;99.90;;;;;;5017673;28;20214;-56
2022/07/27 05:40:48;;;;;;;6.70;1.60;;;13.40;99.90;;;;;;5017468;28;20531;-57
2022/07/27 05:43:14;;;;;;;4.77;1.77;;;13.40;99.90;;;;;;5017524;28;20253;-56
2022/07/27 05:45:40;;;;;;;6.85;1.98;;;13.50;99.90;;;;;;5017392;28;20266;-57
2022/07/27 05:48:05;;;;;;;6.28;1.60;;;13.50;99.90;;;;;;5017370;28;20208;-56
2022/07/27 05:50:31;;;;;;;5.32;1.90;;;13.50;99.90;;;;;;5017406;28;20250;-56
2022/07/27 05:52:59;;;;;;;6.60;2.05;;;13.60;99.90;;;;;;5017375;28;20166;-57
2022/07/27 05:55:25;;;;;;;12.32;2.30;;;13.60;99.90;;;;;;5017336;28;20218;-57
2022/07/27 05:57:51;;;;;;;6.80;2.10;;;13.70;99.90;;;;;;5017468;28;20271;-57
2022/07/27 06:00:17;;;;;;;4.53;1.73;;;13.70;99.90;;;;;;5017290;28;20237;-58
2022/07/27 06:02:43;;;;;;;7.63;1.80;;;13.70;99.90;;;;;;5017780;28;20166;-57
2022/07/27 06:05:09;;;;;;;7.80;1.95;;;13.80;99.90;;;;;;5017186;28;20186;-57
2022/07/27 06:10:19;;;;;;;5.35;2.00;;;13.90;99.90;;;;;;5017418;28;20186;-59
2022/07/27 06:12:45;;;;;;;7.20;2.05;;;13.90;99.90;;;;;;5017266;28;20166;-57
2022/07/27 06:15:13;;;;;;;9.85;2.13;;;14.10;99.90;;;;;;5014299;28;20661;-58
2022/07/27 06:17:39;;;;;;;6.03;1.92;;;14.00;99.90;;;;;;5014267;28;20171;-57
2022/07/27 06:20:07;;;;;;;4.50;1.90;;;14.10;99.90;;;;;;5013938;28;20222;-57
2022/07/27 06:22:44;;;;;;;4.55;1.80;;;14.10;99.90;;;;;;5013919;28;20175;-57
2022/07/27 06:25:11;;;;;;;9.98;2.17;;;14.20;99.90;;;;;;5013798;28;20636;-57
2022/07/27 06:27:36;;;;;;;6.63;2.30;;;14.20;99.90;;;;;;4996219;28;20186;-57
2022/07/27 06:30:04;;;;;;;5.85;1.85;;;14.20;99.90;;;;;;5013977;28;20571;-57
2022/07/27 06:32:29;;;;;;;4.88;2.05;;;14.30;99.90;;;;;;5012267;28;20169;-70
2022/07/27 06:34:55;;;;;;;6.03;2.10;;;14.30;99.90;;;;;;4994363;28;20203;-70
2022/07/27 06:37:21;;;;;;;5.80;2.30;;;14.40;99.90;;;;;;5006607;28;20172;-70
2022/07/27 06:39:47;;;;;;;7.47;2.13;;;14.50;99.90;;;;;;5009166;28;20637;-69
2022/07/27 06:42:13;;;;;;;6.57;2.22;;;14.60;99.90;;;;;;5011979;28;20175;-69
2022/07/27 06:44:39;;;;;;;6.43;2.35;;;14.70;99.90;;;;;;4998752;28;20182;-73
2022/07/27 06:47:06;;;;;;;9.60;2.30;;;14.70;99.90;;;;;;4996386;28;20183;-70
2022/07/27 06:49:32;;;;;;;6.85;2.60;;;14.80;99.90;;;;;;4997529;28;20205;-69
2022/07/27 06:51:58;;;;;;;8.63;2.78;;;14.90;99.90;;;;;;5012451;28;20178;-70
2022/07/27 06:54:24;;;;;;;6.95;2.85;;;14.80;99.90;;;;;;5008564;28;20206;-68
2022/07/27 06:56:50;;;;;;;7.93;2.47;;;14.90;99.90;;;;;;5012956;28;20234;-70
2022/07/27 06:59:16;;;;;;;10.30;2.72;;;15.00;99.90;;;;;;5013327;28;20551;-72
2022/07/27 07:01:42;;;;;;;12.90;3.40;;;15.10;99.90;;;;;;5013270;28;20249;-70
2022/07/27 07:04:08;;;;;;;8.02;3.38;;;15.20;99.90;;;;;;5012938;28;20186;-69
2022/07/27 07:06:34;;;;;;;6.05;2.90;;;15.30;99.90;;;;;;5013143;28;20181;-69
2022/07/27 07:09:00;;;;;;;13.40;3.67;;;15.40;99.90;;;;;;5012964;28;20162;-70
2022/07/27 07:11:26;;;;;;;8.15;3.70;;;15.40;99.90;;;;;;5013360;28;20257;-68
2022/07/27 07:13:52;;;;;;;11.45;3.25;;;15.40;99.90;;;;;;5012865;28;20262;-70
2022/07/27 07:16:18;;;;;;;11.07;3.47;;;15.60;99.90;;;;;;5012892;28;20264;-69
2022/07/27 07:18:44;;;;;;;22.65;3.60;;;15.80;99.90;;;;;;5012740;28;20233;-70
2022/07/27 07:21:10;;;;;;;17.00;3.60;;;15.90;99.90;;;;;;5012941;28;20645;-70
2022/07/27 07:23:35;;;;;;;11.57;3.65;;;16.00;99.90;;;;;;5012852;28;20190;-70
2022/07/27 07:26:01;;;;;;;15.05;3.80;;;16.00;99.90;;;;;;5011314;28;20285;-67
2022/07/27 07:28:27;;;;;;;12.98;3.05;;;16.00;99.90;;;;;;5012644;28;20638;-72
2022/07/27 07:30:53;;;;;;;8.95;3.03;;;16.10;99.90;;;;;;5012558;28;20182;-72
2022/07/27 07:33:19;;;;;;;9.27;3.00;;;16.40;99.90;;;;;;5012558;28;20186;-70
2022/07/27 07:35:45;;;;;;;11.80;3.70;;;16.60;99.90;;;;;;5012455;28;20743;-58
2022/07/27 07:38:10;;;;;;;9.18;3.45;;;16.70;99.90;;;;;;5012670;28;20201;-58
2022/07/27 07:40:37;;;;;;;11.68;3.63;;;16.80;99.90;;;;;;5012153;28;20182;-57
2022/07/27 07:43:03;;;;;;;17.42;4.00;;;16.00;99.90;;;;;;5012416;28;20181;-58
2022/07/27 07:45:32;;;;;;;12.13;3.40;;;16.00;99.90;;;;;;5012025;28;20641;-56
2022/07/27 07:47:58;;;;;;;16.08;4.00;;;16.30;99.90;;;;;;5012451;28;20174;-58
2022/07/27 07:50:25;;;;;;;12.82;3.25;;;16.50;99.90;;;;;;5012278;28;20226;-57
2022/07/27 07:52:52;;;;;;;20.60;3.83;;;16.80;99.90;;;;;;5012118;28;20516;-57
2022/07/27 07:55:22;;;;;;;13.20;3.70;;;17.00;99.90;;;;;;5011567;28;20745;-57
2022/07/27 07:57:48;;;;;;;15.40;3.70;;;17.10;99.90;;;;;;5012085;28;20174;-57
2022/07/27 08:00:15;;;;;;;18.75;3.70;;;17.20;99.90;;;;;;5012049;28;20245;-57
2022/07/27 08:02:47;;;;;;;16.20;4.88;;;17.20;99.90;;;;;;5012147;28;20185;-58
2022/07/27 08:05:13;;;;;;;14.35;5.20;;;17.00;99.90;;;;;;5012065;28;20170;-61
2022/07/27 08:07:40;;;;;;;15.85;4.68;;;16.60;99.90;;;;;;5011965;28;20256;-60
2022/07/27 08:10:07;;;;;;;14.77;4.72;;;16.60;99.90;;;;;;5011377;28;20205;-61
2022/07/27 08:12:34;;;;;;;22.25;5.80;;;16.70;99.90;;;;;;5009086;28;20186;-61
2022/07/27 08:15:00;;;;;;;14.63;5.40;;;17.00;99.90;;;;;;5008172;28;20205;-62
2022/07/27 08:17:26;;;;;;;13.85;5.03;;;17.30;99.90;;;;;;5012333;28;20174;-56
2022/07/27 08:19:52;;;;;;;16.73;5.20;;;17.50;99.90;;;;;;5011663;28;20230;-62
2022/07/27 08:22:17;;;;;;;16.30;5.18;;;17.60;99.90;;;;;;5011819;28;20170;-63
2022/07/27 08:24:43;;;;;;;21.98;5.30;;;17.70;99.90;;;;;;5011416;28;20582;-65
2022/07/27 08:27:09;;;;;;;12.73;4.53;;;17.80;99.90;;;;;;5011778;28;20187;-65
2022/07/27 08:29:35;;;;;;;14.15;5.22;;;18.10;99.90;;;;;;5011714;28;20648;-65
2022/07/27 08:32:01;;;;;;;22.27;5.03;;;18.10;99.90;;;;;;5011334;28;20189;-65
2022/07/27 08:34:27;;;;;;;13.65;4.57;;;18.00;99.90;;;;;;5011453;28;20204;-66
2022/07/27 08:36:53;;;;;;;23.13;5.10;;;18.00;99.90;;;;;;5009649;28;20699;-65
2022/07/27 08:39:18;;;;;;;10.45;4.65;;;18.50;99.90;;;;;;5011149;28;20695;-65
2022/07/27 08:41:44;;;;;;;14.63;4.25;;;18.70;99.90;;;;;;5011101;28;20540;-65
2022/07/27 08:44:13;;;;;;;15.15;4.35;;;19.30;99.90;;;;;;5011412;28;20697;-66
2022/07/27 08:46:40;;;;;;;9.85;4.60;;;19.70;99.90;;;;;;5011405;28;20182;-65
2022/07/27 08:49:07;;;;;;;13.32;5.07;;;20.00;99.90;;;;;;5011373;28;20199;-65
2022/07/27 08:51:34;;;;;;;12.43;5.00;;;20.50;99.90;;;;;;5010544;28;20183;-67
2022/07/27 08:54:00;;;;;;;9.85;4.28;;;20.80;99.90;;;;;;5011272;28;20305;-67
2022/07/27 08:56:26;;;;;;;11.02;4.43;;;20.90;99.90;;;;;;5011460;28;20258;-66
2022/07/27 08:58:52;;;;;;;9.98;4.45;;;20.70;99.90;;;;;;5011388;28;20262;-66
2022/07/27 09:01:18;;;;;;;11.18;4.32;;;21.30;99.90;;;;;;5011238;28;20233;-65
2022/07/27 09:03:44;;;;;;;11.48;4.45;;;21.60;99.90;;;;;;5011118;28;20170;-66
2022/07/27 09:06:10;;;;;;;9.95;4.53;;;21.90;99.90;;;;;;5010714;28;20687;-66
2022/07/27 09:08:40;;;;;;;8.93;3.97;;;21.20;99.90;;;;;;5007370;28;20265;-66
2022/07/27 09:11:14;;;;;;;15.45;4.32;;;21.30;99.90;;;;;;5002238;28;20183;-67
2022/07/27 09:13:40;;;;;;;8.77;4.20;;;21.10;99.90;;;;;;5011122;28;20209;-66
2022/07/27 09:16:08;;;;;;;13.15;4.63;;;21.10;99.90;;;;;;5008369;28;20616;-66
2022/07/27 09:18:36;;;;;;;12.35;4.97;;;21.50;99.90;;;;;;5010927;28;20279;-65
2022/07/27 09:21:16;;;;;;;9.45;4.03;;;21.80;99.90;;;;;;5011051;28;20207;-66
2022/07/27 09:23:46;;;;;;;10.82;4.40;;;21.70;99.90;;;;;;5010270;28;20182;-64
2022/07/27 09:26:24;;;;;;;9.13;3.90;;;22.50;99.90;;;;;;5010472;28;20550;-65
2022/07/27 09:28:55;;;;;;;9.25;3.88;;;22.50;99.90;;;;;;5010705;28;20174;-65
2022/07/27 09:31:22;;;;;;;12.18;4.20;;;22.50;99.90;;;;;;5010599;28;20179;-65
2022/07/27 09:33:54;;;;;;;13.43;4.15;;;22.70;99.90;;;;;;5010989;28;20178;-66
2022/07/27 09:36:22;;;;;;;11.68;3.88;;;23.00;99.90;;;;;;5010875;28;20222;-65
2022/07/27 09:39:06;;;;;;;7.88;3.58;;;23.10;99.90;;;;;;5010575;28;20216;-66
2022/07/27 09:41:47;;;;;;;8.80;4.32;;;23.30;99.90;;;;;;5009922;28;20182;-65
2022/07/27 09:44:13;;;;;;;8.40;3.63;;;23.10;99.90;;;;;;5011130;28;20252;-67
2022/07/27 09:46:42;;;;;;;10.27;3.72;;;23.00;99.90;;;;;;5010834;28;20189;-66
2022/07/27 09:49:31;;;;;;;10.48;3.58;;;22.50;99.90;;;;;;5011446;28;20224;-65
2022/07/27 09:51:58;;;;;;;8.85;3.70;;;22.60;99.90;;;;;;5014441;28;20179;-67
2022/07/27 09:54:25;;;;;;;11.30;3.45;;;23.00;99.90;;;;;;5014617;28;20272;-67
2022/07/27 09:56:59;;;;;;;13.23;3.33;;;23.10;99.90;;;;;;5014522;28;20183;-67
2022/07/27 09:59:26;;;;;;;8.88;3.30;;;23.60;99.90;;;;;;5014401;28;20641;-68
2022/07/27 10:01:54;;;;;;;8.65;3.53;;;23.70;99.90;;;;;;5013945;28;20182;-67
2022/07/27 10:04:21;;;;;;;8.57;3.33;;;24.10;99.90;;;;;;5014210;28;20183;-67
2022/07/27 10:06:47;;;;;;;9.40;3.53;;;23.20;99.90;;;;;;5014223;28;20177;-68
2022/07/27 10:09:13;;;;;;;8.88;3.45;;;22.70;99.90;;;;;;5014204;28;20179;-66
2022/07/27 10:11:39;;;;;;;5.68;3.03;;;22.40;99.90;;;;;;5013714;28;20174;-66
2022/07/27 10:14:06;;;;;;;7.40;2.67;;;22.50;99.90;;;;;;5013526;28;20174;-67
2022/07/27 10:16:33;;;;;;;5.90;3.08;;;22.80;99.90;;;;;;5014130;28;20202;-68
2022/07/27 10:19:08;;;;;;;7.88;3.00;;;23.10;99.90;;;;;;5013651;28;20218;-68
2022/07/27 10:21:36;;;;;;;5.38;2.70;;;22.60;99.90;;;;;;5014194;28;20181;-67
2022/07/27 10:24:09;;;;;;;5.40;2.75;;;22.90;99.90;;;;;;5014069;28;20174;-67
2022/07/27 10:26:40;;;;;;;10.43;3.60;;;23.30;99.90;;;;;;5013951;28;20178;-67
2022/07/27 10:29:17;;;;;;;10.02;3.40;;;23.60;99.90;;;;;;5013975;28;20170;-67
2022/07/27 10:31:58;;;;;;;11.68;3.45;;;23.50;99.90;;;;;;5013659;28;20186;-69
2022/07/27 10:34:35;;;;;;;9.65;3.45;;;23.30;99.90;;;;;;5013621;28;20233;-67
2022/07/27 10:37:14;;;;;;;8.38;2.90;;;23.20;99.90;;;;;;5013340;28;20256;-68
2022/07/27 10:39:43;;;;;;;9.25;2.53;;;23.20;99.90;;;;;;5013123;28;20178;-67
2022/07/27 10:42:27;;;;;;;7.57;2.97;;;23.30;99.90;;;;;;5013813;28;20178;-68
2022/07/27 10:44:57;;;;;;;9.45;2.40;;;23.30;99.90;;;;;;5012941;28;20197;-68
2022/07/27 10:47:29;;;;;;;8.05;2.38;;;23.30;99.90;;;;;;5012879;28;20178;-68
2022/07/27 10:50:31;;;;;;;8.85;2.65;;;23.40;99.90;;;;;;5013474;28;20167;-67
2022/07/27 10:53:03;;;;;;;7.75;2.17;;;23.50;99.90;;;;;;4962045;28;20186;-68
2022/07/27 10:55:29;;;;;;;7.10;2.47;;;23.50;99.90;;;;;;5004024;28;20697;-67
2022/07/27 10:58:21;;;;;;;6.47;2.30;;;23.20;99.90;;;;;;5012865;28;20174;-69
2022/07/27 11:00:49;;;;;;;5.82;2.20;;;23.30;99.90;;;;;;5011033;28;20672;-69
2022/07/27 11:03:33;;;;;;;5.95;2.05;;;23.50;99.90;;;;;;5008904;28;20175;-68
2022/07/27 11:06:06;;;;;;;5.45;1.83;;;23.70;99.90;;;;;;4995214;28;20182;-69
2022/07/27 11:08:37;;;;;;;5.57;1.88;;;24.30;99.90;;;;;;5013169;28;20179;-69
2022/07/27 11:11:04;;;;;;;3.90;1.58;;;24.80;99.90;;;;;;5012733;28;20190;-72
2022/07/27 11:13:33;;;;;;;8.52;2.08;;;24.40;99.90;;;;;;5013039;28;20536;-72
2022/07/27 11:16:10;;;;;;;7.00;1.80;;;24.50;99.90;;;;;;5012956;28;20211;-73
2022/07/27 11:18:38;;;;;;;3.80;1.30;;;24.70;99.90;;;;;;5012380;28;20209;-78
2022/07/27 11:21:21;;;;;;;6.82;1.83;;;24.60;99.90;;;;;;5012722;28;20257;-77
2022/07/27 11:23:52;;;;;;;6.15;2.03;;;24.70;99.90;;;;;;5012705;28;20186;-76
2022/07/27 11:26:22;;;;;;;5.93;1.90;;;24.80;99.90;;;;;;5012184;28;20680;-75
2022/07/27 11:28:49;;;;;;;7.05;1.48;;;25.10;99.90;;;;;;5012270;28;20170;-74
2022/07/27 11:31:15;;;;;;;6.05;1.70;;;25.10;99.90;;;;;;5012724;28;20210;-75
2022/07/27 11:33:51;;;;;;;3.95;1.35;;;25.40;99.90;;;;;;5010418;28;20192;-75
2022/07/27 11:36:17;;;;;;;5.95;1.58;;;25.80;99.90;;;;;;5001413;28;20216;-77
2022/07/27 11:38:47;;;;;;;3.92;1.10;;;25.50;99.90;;;;;;5011721;28;20179;-73
2022/07/27 11:41:25;;;;;;;2.88;1.20;;;25.40;99.90;;;;;;5007125;28;20265;-74
2022/07/27 11:43:52;;;;;;;6.13;1.38;;;25.40;99.90;;;;;;5012284;28;20261;-74
2022/07/27 11:46:24;;;;;;;2.92;1.02;;;25.20;99.90;;;;;;5012387;28;20167;-74
2022/07/27 11:48:56;;;;;;;3.85;1.25;;;25.30;99.90;;;;;;5012523;28;20170;-75
2022/07/27 11:51:22;;;;;;;3.38;1.40;;;25.50;99.90;;;;;;5011970;28;20585;-73
2022/07/27 11:53:55;;;;;;;3.30;1.05;;;25.80;99.90;;;;;;5012140;28;20170;-72
2022/07/27 11:56:23;;;;;;;6.80;1.10;;;25.70;99.90;;;;;;5012149;28;20208;-75
2022/07/27 11:59:06;;;;;;;3.42;1.13;;;25.60;99.90;;;;;;5012140;28;20186;-74
2022/07/27 12:01:44;;;;;;;3.42;1.20;;;25.60;99.90;;;;;;5011790;28;20187;-73
2022/07/27 12:04:24;;;;;;;3.92;1.35;;;25.90;99.90;;;;;;5012043;28;20233;-76
2022/07/27 12:07:11;;;;;;;6.40;1.55;;;25.40;99.90;;;;;;5011981;28;20637;-75
2022/07/27 12:09:53;;;;;;;2.53;1.13;;;25.20;99.90;;;;;;5012149;28;20194;-76
2022/07/27 12:12:20;;;;;;;3.78;0.98;;;25.40;99.90;;;;;;5012005;28;20257;-76
2022/07/27 12:14:56;;;;;;;4.03;1.17;;;26.20;99.90;;;;;;5011857;28;20202;-76
2022/07/27 12:17:33;;;;;;;4.85;1.55;;;27.00;99.90;;;;;;5011956;28;20178;-77
2022/07/27 12:19:59;;;;;;;3.03;1.10;;;27.30;99.90;;;;;;5011256;28;20276;-78
2022/07/27 12:22:35;;;;;;;5.95;1.05;;;27.20;99.90;;;;;;5011539;28;20179;-74
2022/07/27 12:25:23;;;;;;;6.03;1.25;;;26.30;99.90;;;;;;5011878;28;20196;-78
2022/07/27 12:27:59;;;;;;;3.03;1.02;;;26.40;99.90;;;;;;5011976;28;20179;-76
2022/07/27 12:30:37;;;;;;;2.83;1.10;;;26.20;99.90;;;;;;5011786;28;20886;-77
2022/07/27 12:33:23;;;;;;;2.83;0.85;;;26.30;99.90;;;;;;5011650;28;20171;-77
2022/07/27 12:35:49;;;;;;;4.45;1.17;;;25.70;99.90;;;;;;5011076;28;20206;-77
2022/07/27 12:38:15;;;;;;;3.42;1.50;;;25.10;99.90;;;;;;5011682;28;20175;-75
2022/07/27 12:40:56;;;;;;;3.17;1.10;;;24.70;99.90;;;;;;5011470;28;20185;-76
2022/07/27 12:43:24;;;;;;;4.63;1.23;;;25.20;99.90;;;;;;5011252;28;20166;-77
2022/07/27 12:45:52;;;;;;;3.17;1.33;;;25.70;99.90;;;;;;5010621;28;20237;-76
2022/07/27 12:48:26;;;;;;;1.95;1.15;;;25.30;99.90;;;;;;5011467;28;20174;-76
2022/07/27 12:51:04;;;;;;;2.75;1.10;;;25.20;99.90;;;;;;5011531;28;20257;-77
2022/07/27 12:53:31;;;;;;;3.65;1.25;;;25.40;99.90;;;;;;5011014;28;20699;-75
2022/07/27 12:55:59;;;;;;;5.97;1.20;;;24.60;99.90;;;;;;5011258;28;20225;-76